Etusivu
METAR-TAF:

METAR-TAF

Lentoasemat :

Xiamen, Kiina

Leveyspiiri: 24-29N, Pituuspiiri: 118-05E, korkeus merenpinnasta: 139 m

Tämänhetkinen sää

Tämä raportti tehtiin 55 minuuttia sitten, kello 02.00 UTC
Tuuli 4 kn eri suunnista
Lämpötila 28°C
Kosteus 79%
Ilmanpaine 1011 hPa
Näkyvyys: 9000 m
Hajanaisia pilviä 1700 ft:n korkeudessa

METAR: ZSAM 170200Z VRB02MPS 9000 SCT017 28/24 Q1011 NOSIG

Aika: 10:55 (02:55 UTC)

Sääennuste

Tämä raportti tehtiin 5 tuntia ja 53 minuuttia sitten, kello 21.02 UTC
Ennuste voimassa 17. päivästä klo 00 UTC - 17. päivään klo 24 UTC
Tuuli 6 kn etelästä/kaakosta
Näkyvyys: 4000 m
Hajanaisia pilviä 1100 ft:n korkeudessa
Hajonneita pilviä 3300 ft:n korkeudessa
utua
Ajoittain
17. päivästä klo 08 UTC - 17. päivään klo 12 UTC
Muutamia pilviä 2300 ft:n korkeudessa, Cumulonimbus.
Hajonneita pilviä 3300 ft:n korkeudessa

TAF: ZSAM 162102Z 1700/1724 15003MPS 4000 BR SCT011 BKN033 TX31/1706Z TN21/1721Z TEMPO 1708/1712 FEW023CB BKN033

Säähavainnot ja -ennusteet yli 4000 lentoasemalta (METAR- ja TAF-raportit).

Käytössä olevat sääasemat on merkitty karttaan keltaisilla ja punaisilla pisteillä.

Aseta hiiri pisteen päälle nähdäksesi sääaseman nimen.

Klikkaa sitten nähdäksesi säähavainnot ja -ennusteet.

Kartan vaihtaminen: klikkaa mustalla rastilla varustettuja vihreitä pisteitä, niin voit zoomata sisään; viivalla varustettua vihreää pistettä, niin voit zoomata ulos tai vihreitä nuolia, niin pääset viereisille kartoille.


METAR-TAF: